Time;durP1;ratioP1;P1;durP2;ratioP2;P2;SDS_P1;SDS_P2;PMS_P1;PMS_P2;Temp;Humidity;BMP_temperature;BMP_pressure;BME280_temperature;BME280_humidity;BME280_pressure;Samples;Min_cycle;Max_cycle;Signal;HPM_P1;HPM_P2
2023/10/14 00:01:27;;;;;;;;;;;13.30;78.90;;;;;;5095496;23;19981;-90
2023/10/14 00:03:51;;;;;;;;;;;13.30;78.90;;;;;;5138502;23;19914;-91
2023/10/14 00:06:17;;;;;;;;;;;13.30;78.90;;;;;;5118963;23;19904;-90
2023/10/14 00:11:13;;;;;;;;;;;13.30;78.90;;;;;;5135762;23;19916;-90
2023/10/14 00:13:43;;;;;;;;;;;13.30;79.10;;;;;;5113553;23;19904;-91
2023/10/14 00:18:48;;;;;;;;;;;13.20;79.10;;;;;;5114126;23;19905;-91
2023/10/14 00:21:15;;;;;;;;;;;13.20;79.20;;;;;;5138863;22;19924;-91
2023/10/14 00:23:35;;;;;;;;;;;13.30;79.30;;;;;;5139000;22;19974;-91
2023/10/14 00:25:57;;;;;;;;;;;13.20;79.30;;;;;;5133988;23;19986;-90
2023/10/14 00:28:19;;;;;;;;;;;13.20;79.30;;;;;;5134860;23;19908;-90
2023/10/14 00:30:48;;;;;;;;;;;13.20;79.30;;;;;;5086585;23;20116;-90
2023/10/14 00:33:12;;;;;;;;;;;13.10;79.40;;;;;;5137155;23;19914;-90
2023/10/14 00:35:32;;;;;;;;;;;13.20;79.40;;;;;;5112725;23;19923;-90
2023/10/14 00:37:53;;;;;;;;;;;13.20;79.40;;;;;;5114112;23;20380;-90
2023/10/14 00:40:22;;;;;;;;;;;13.20;79.40;;;;;;5114835;23;19905;-91
2023/10/14 00:42:44;;;;;;;;;;;13.20;79.40;;;;;;5135665;23;19915;-89
2023/10/14 00:45:11;;;;;;;;;;;13.10;79.40;;;;;;5114813;23;19909;-89
2023/10/14 00:47:32;;;;;;;;;;;13.10;79.40;;;;;;5114872;23;19908;-89
2023/10/14 00:49:55;;;;;;;;;;;13.10;79.40;;;;;;5134603;23;19954;-91
2023/10/14 00:52:09;;;;;;;;;;;13.20;79.50;;;;;;5110490;23;19916;-89
2023/10/14 00:54:11;;;;;;;;;;;13.10;79.50;;;;;;5134928;23;19904;-89
2023/10/14 00:56:17;;;;;;;;;;;13.00;79.50;;;;;;5111016;23;19911;-89
2023/10/14 00:58:23;;;;;;;;;;;13.00;79.40;;;;;;5134887;23;19908;-88
2023/10/14 01:00:34;;;;;;;;;;;13.10;79.50;;;;;;5133346;23;20492;-89
2023/10/14 01:02:37;;;;;;;;;;;13.10;79.40;;;;;;5136478;23;19904;-88
2023/10/14 01:04:40;;;;;;;;;;;13.00;79.30;;;;;;5134490;23;19908;-88
2023/10/14 01:07:06;;;;;;;;;;;13.00;79.40;;;;;;5135123;23;19907;-89
2023/10/14 01:09:10;;;;;;;;;;;13.10;79.50;;;;;;5134313;23;19912;-89
2023/10/14 01:11:16;;;;;;;;;;;13.00;79.50;;;;;;5110815;23;19908;-89
2023/10/14 01:13:21;;;;;;;;;;;13.00;79.50;;;;;;5136106;23;19928;-90
2023/10/14 01:15:22;;;;;;;;;;;13.00;79.60;;;;;;5136341;23;19915;-89
2023/10/14 01:17:31;;;;;;;;;;;12.90;79.40;;;;;;5111214;23;19954;-88
2023/10/14 01:19:52;;;;;;;;;;;12.90;79.40;;;;;;5137389;23;19916;-90
2023/10/14 01:22:13;;;;;;;;;;;12.90;79.40;;;;;;5134317;23;19904;-89
2023/10/14 01:24:38;;;;;;;;;;;12.90;79.50;;;;;;5114974;23;20388;-87
2023/10/14 01:27:05;;;;;;;;;;;12.80;79.40;;;;;;5113839;23;19975;-88
2023/10/14 01:29:30;;;;;;;;;;;12.80;79.20;;;;;;5132664;23;19915;-89
2023/10/14 01:32:10;;;;;;;;;;;12.80;79.20;;;;;;5135693;23;19922;-90
2023/10/14 01:34:40;;;;;;;;;;;12.70;79.20;;;;;;5116036;23;19909;-91
2023/10/14 01:37:12;;;;;;;;;;;12.70;79.20;;;;;;5135367;23;20077;-90
2023/10/14 01:39:46;;;;;;;;;;;12.60;79.20;;;;;;5115690;23;19908;-90
2023/10/14 01:42:08;;;;;;;;;;;12.60;79.10;;;;;;5139037;23;19911;-91
2023/10/14 01:44:28;;;;;;;;;;;12.60;79.10;;;;;;5138785;23;19915;-89
2023/10/14 01:46:50;;;;;;;;;;;12.60;79.10;;;;;;5138230;23;19919;-90
2023/10/14 01:49:16;;;;;;;;;;;12.50;79.10;;;;;;5138081;23;19912;-89
2023/10/14 01:51:37;;;;;;;;;;;12.50;79.00;;;;;;5143959;22;19924;-90
2023/10/14 01:54:02;;;;;;;;;;;12.40;78.90;;;;;;5159986;22;19906;-91
2023/10/14 01:56:06;;;;;;;;;;;12.30;78.90;;;;;;5162952;22;19907;-91
2023/10/14 01:58:10;;;;;;;;;;;12.30;78.90;;;;;;5163164;22;19920;-90
2023/10/14 02:00:28;;;;;;;;;;;12.20;78.90;;;;;;5149628;22;19918;-90
2023/10/14 02:02:39;;;;;;;;;;;12.20;79.60;;;;;;5111783;23;20679;-91
2023/10/14 02:04:43;;;;;;;;;;;12.10;78.80;;;;;;5109291;23;19904;-89
2023/10/14 02:07:00;;;;;;;;;;;12.20;78.90;;;;;;5111801;23;19912;-90
2023/10/14 02:09:04;;;;;;;;;;;12.20;78.90;;;;;;5086440;23;19909;-89
2023/10/14 02:11:20;;;;;;;;;;;12.10;78.80;;;;;;5110525;23;19987;-89
2023/10/14 02:13:41;;;;;;;;;;;12.00;78.80;;;;;;5114275;23;20521;-90
2023/10/14 02:16:06;;;;;;;;;;;12.00;78.80;;;;;;5136071;23;19908;-88
2023/10/14 02:18:27;;;;;;;;;;;11.90;78.70;;;;;;5134408;23;19911;-89
2023/10/14 02:21:04;;;;;;;;;;;12.00;78.80;;;;;;5132016;23;19978;-89
2023/10/14 02:23:43;;;;;;;;;;;11.80;78.60;;;;;;5138027;23;19904;-90
2023/10/14 02:26:08;;;;;;;;;;;11.80;78.70;;;;;;5136521;23;19919;-88
2023/10/14 02:28:40;;;;;;;;;;;11.80;78.80;;;;;;5133148;23;19987;-90
2023/10/14 02:31:02;;;;;;;;;;;11.70;78.70;;;;;;5135411;23;19979;-89
2023/10/14 02:33:23;;;;;;;;;;;11.70;79.60;;;;;;5137373;23;19911;-91
2023/10/14 02:35:44;;;;;;;;;;;11.70;78.90;;;;;;5137369;23;19911;-90
2023/10/14 02:38:07;;;;;;;;;;;11.60;78.80;;;;;;5137869;23;19908;-90
2023/10/14 02:40:12;;;;;;;;;;;11.70;78.90;;;;;;5161962;22;19900;-90
2023/10/14 02:42:14;;;;;;;;;;;11.60;78.90;;;;;;5129807;22;19916;-90
2023/10/14 02:44:28;;;;;;;;;;;11.60;78.90;;;;;;5113317;23;20361;-91
2023/10/14 02:46:29;;;;;;;;;;;11.50;78.90;;;;;;5110438;23;19912;-91
2023/10/14 02:48:52;;;;;;;;;;;11.50;78.90;;;;;;5085536;23;20371;-91
2023/10/14 02:50:50;;;;;;;;;;;11.50;79.00;;;;;;5111219;23;19904;-91
2023/10/14 02:53:06;;;;;;;;;;;11.50;79.10;;;;;;5087036;23;19916;-91
2023/10/14 02:55:25;;;;;;;;;;;11.50;79.10;;;;;;5112815;23;19908;-91
2023/10/14 02:57:46;;;;;;;;;;;11.40;79.10;;;;;;5115390;23;19904;-91
2023/10/14 03:00:00;;;;;;;;;;;11.40;79.10;;;;;;5111780;23;19908;-91
2023/10/14 03:07:22;;;;;;;;;;;11.40;79.00;;;;;;5137387;23;19907;-89
2023/10/14 03:09:43;;;;;;;;;;;11.40;79.00;;;;;;5134998;23;19915;-91
2023/10/14 03:12:05;;;;;;;;;;;11.50;79.10;;;;;;5115026;23;19916;-91
2023/10/14 03:14:26;;;;;;;;;;;11.40;79.10;;;;;;5139497;23;19904;-89
2023/10/14 03:16:52;;;;;;;;;;;11.30;79.00;;;;;;5134928;23;19979;-91
2023/10/14 03:18:55;;;;;;;;;;;11.30;78.90;;;;;;5135705;23;19910;-90
2023/10/14 03:21:00;;;;;;;;;;;11.40;79.00;;;;;;5089043;23;20404;-90
2023/10/14 03:25:49;;;;;;;;;;;11.30;78.80;;;;;;5136376;23;19950;-88
2023/10/14 03:27:59;;;;;;;;;;;11.30;78.70;;;;;;5138097;23;20298;-90
2023/10/14 03:30:00;;;;;;;;;;;11.30;78.70;;;;;;5138951;23;19908;-89
2023/10/14 03:32:02;;;;;;;;;;;11.30;78.70;;;;;;5113265;23;19947;-92
2023/10/14 03:34:08;;;;;;;;;;;11.30;78.60;;;;;;5110169;23;20360;-89
2023/10/14 03:36:18;;;;;;;;;;;11.20;78.60;;;;;;5112979;23;20226;-90
2023/10/14 03:41:03;;;;;;;;;;;11.20;78.50;;;;;;5137197;23;20374;-89
2023/10/14 03:43:23;;;;;;;;;;;11.20;78.50;;;;;;5116595;23;19918;-87
2023/10/14 03:46:04;;;;;;;;;;;11.20;78.50;;;;;;5139050;23;19908;-89
2023/10/14 03:48:35;;;;;;;;;;;11.20;78.50;;;;;;5138387;23;19911;-89
2023/10/14 03:50:38;;;;;;;;;;;11.10;78.40;;;;;;5112801;23;19915;-89
2023/10/14 03:52:42;;;;;;;;;;;11.10;78.40;;;;;;5087346;23;19917;-89
2023/10/14 03:54:45;;;;;;;;;;;11.10;78.40;;;;;;5088291;23;19908;-90
2023/10/14 03:56:47;;;;;;;;;;;11.00;78.40;;;;;;5136167;23;19927;-88
2023/10/14 03:59:18;;;;;;;;;;;11.00;78.40;;;;;;5115355;23;19938;-90
2023/10/14 04:04:14;;;;;;;;;;;10.90;78.60;;;;;;5135838;23;19915;-90
2023/10/14 04:06:35;;;;;;;;;;;10.90;78.20;;;;;;5136229;23;19927;-89
2023/10/14 04:08:55;;;;;;;;;;;10.90;78.40;;;;;;5137574;23;19911;-89
2023/10/14 04:11:35;;;;;;;;;;;10.90;78.30;;;;;;5115144;23;22435;-90
2023/10/14 04:14:07;;;;;;;;;;;10.90;78.30;;;;;;5137840;23;19908;-90
2023/10/14 04:16:36;;;;;;;;;;;10.90;78.30;;;;;;5114223;23;19920;-90
2023/10/14 04:19:13;;;;;;;;;;;10.80;78.30;;;;;;5136861;23;20029;-88
2023/10/14 04:21:37;;;;;;;;;;;10.80;78.30;;;;;;5116015;23;19904;-90
2023/10/14 04:24:26;;;;;;;;;;;10.70;78.20;;;;;;5137753;23;19915;-88
2023/10/14 04:26:49;;;;;;;;;;;10.80;78.20;;;;;;5137034;23;19970;-88
2023/10/14 04:29:34;;;;;;;;;;;10.70;78.10;;;;;;5115968;23;19912;-88
2023/10/14 04:31:58;;;;;;;;;;;10.70;78.20;;;;;;5136987;23;19947;-86
2023/10/14 04:34:22;;;;;;;;;;;10.70;78.20;;;;;;5114912;23;19976;-89
2023/10/14 04:36:44;;;;;;;;;;;10.60;78.10;;;;;;5133051;23;19939;-87
2023/10/14 04:38:47;;;;;;;;;;;10.60;78.10;;;;;;5110411;23;20447;-88
2023/10/14 04:40:53;;;;;;;;;;;10.70;78.10;;;;;;5111566;23;19955;-88
2023/10/14 04:42:56;;;;;;;;;;;10.50;77.90;;;;;;5086427;23;19908;-89
2023/10/14 04:45:00;;;;;;;;;;;10.60;78.00;;;;;;5136780;23;19908;-89
2023/10/14 04:47:01;;;;;;;;;;;10.60;78.00;;;;;;5110479;23;20230;-88
2023/10/14 04:49:07;;;;;;;;;;;10.60;78.10;;;;;;5137361;23;19974;-88
2023/10/14 04:51:19;;;;;;;;;;;10.60;78.00;;;;;;5136129;23;19904;-87
2023/10/14 04:53:43;;;;;;;;;;;10.60;77.90;;;;;;5136655;23;19904;-89
2023/10/14 04:56:29;;;;;;;;;;;10.60;77.90;;;;;;5149410;22;19908;-91
2023/10/14 04:58:55;;;;;;;;;;;10.60;77.80;;;;;;5160472;22;19958;-88
2023/10/14 05:01:19;;;;;;;;;;;10.50;77.70;;;;;;5137362;23;20014;-88
2023/10/14 05:03:40;;;;;;;;;;;10.40;77.50;;;;;;5138186;23;19904;-88
2023/10/14 05:06:14;;;;;;;;;;;10.50;77.60;;;;;;5135296;23;20011;-87
2023/10/14 05:08:44;;;;;;;;;;;10.50;77.50;;;;;;5136368;23;19908;-89
2023/10/14 05:11:04;;;;;;;;;;;10.50;77.50;;;;;;5134662;23;19912;-89
2023/10/14 05:13:31;;;;;;;;;;;10.40;77.50;;;;;;5136972;23;19908;-86
2023/10/14 05:16:14;;;;;;;;;;;10.50;77.40;;;;;;5136946;23;19911;-88
2023/10/14 05:18:35;;;;;;;;;;;10.40;77.30;;;;;;5136149;23;19912;-88
2023/10/14 05:21:02;;;;;;;;;;;10.40;77.20;;;;;;5134841;23;19904;-87
2023/10/14 05:23:30;;;;;;;;;;;10.30;77.20;;;;;;5135545;23;19904;-88
2023/10/14 05:25:57;;;;;;;;;;;10.40;77.40;;;;;;5134477;23;19982;-88
2023/10/14 05:28:18;;;;;;;;;;;10.40;77.40;;;;;;5113735;23;20135;-88
2023/10/14 05:30:39;;;;;;;;;;;10.40;77.40;;;;;;5135881;23;19904;-88
2023/10/14 05:33:06;;;;;;;;;;;10.30;77.40;;;;;;5134334;23;19919;-88
2023/10/14 05:35:09;;;;;;;;;;;10.40;77.10;;;;;;5135823;23;19914;-88
2023/10/14 05:37:13;;;;;;;;;;;10.30;77.10;;;;;;5111115;23;19939;-90
2023/10/14 05:39:17;;;;;;;;;;;10.40;77.20;;;;;;5113436;23;19916;-92
2023/10/14 05:41:38;;;;;;;;;;;10.30;76.80;;;;;;5133176;23;19904;-92
2023/10/14 05:44:10;;;;;;;;;;;10.30;76.90;;;;;;5138400;23;19979;-91
2023/10/14 05:46:12;;;;;;;;;;;10.40;76.80;;;;;;5137124;23;19911;-92
2023/10/14 05:48:30;;;;;;;;;;;10.40;76.70;;;;;;5112238;23;19943;-90
2023/10/14 05:50:57;;;;;;;;;;;10.30;76.70;;;;;;5136464;23;19977;-91
2023/10/14 05:53:31;;;;;;;;;;;10.30;76.70;;;;;;5135345;23;20108;-90
2023/10/14 05:56:00;;;;;;;;;;;10.30;76.60;;;;;;5133878;23;19907;-89
2023/10/14 05:58:28;;;;;;;;;;;10.30;76.60;;;;;;5135723;23;19914;-90
2023/10/14 06:00:51;;;;;;;;;;;10.30;76.60;;;;;;5115176;23;19986;-88
2023/10/14 06:03:14;;;;;;;;;;;10.30;76.70;;;;;;5115592;23;19971;-90
2023/10/14 06:05:39;;;;;;;;;;;10.20;76.40;;;;;;5137017;23;19957;-89
2023/10/14 06:08:00;;;;;;;;;;;10.20;76.50;;;;;;5135729;23;19967;-88
2023/10/14 06:10:22;;;;;;;;;;;10.30;76.70;;;;;;5137490;23;19918;-90
2023/10/14 06:12:44;;;;;;;;;;;10.30;76.70;;;;;;5135464;23;19912;-89
2023/10/14 06:15:09;;;;;;;;;;;10.30;76.50;;;;;;5112036;23;19916;-88
2023/10/14 06:17:30;;;;;;;;;;;10.30;76.60;;;;;;5112643;23;19915;-89
2023/10/14 06:19:53;;;;;;;;;;;10.30;76.20;;;;;;5132476;23;19908;-92
2023/10/14 06:22:14;;;;;;;;;;;10.30;76.40;;;;;;5134292;23;19926;-90
2023/10/14 06:24:34;;;;;;;;;;;10.40;76.60;;;;;;5135018;23;19946;-87
2023/10/14 06:27:08;;;;;;;;;;;10.30;76.40;;;;;;5113774;23;19914;-89
2023/10/14 06:29:29;;;;;;;;;;;10.30;76.40;;;;;;5112800;23;19931;-89
2023/10/14 06:31:29;;;;;;;;;;;10.30;76.40;;;;;;5136445;23;19961;-89
2023/10/14 06:33:33;;;;;;;;;;;10.40;76.30;;;;;;5111102;23;20200;-86
2023/10/14 06:35:53;;;;;;;;;;;10.40;76.30;;;;;;5137184;23;19927;-87
2023/10/14 06:37:54;;;;;;;;;;;10.40;76.30;;;;;;5138606;23;19908;-89
2023/10/14 06:40:18;;;;;;;;;;;10.40;75.70;;;;;;5136696;23;19976;-88
2023/10/14 06:42:22;;;;;;;;;;;10.40;76.00;;;;;;5109852;23;19911;-87
2023/10/14 06:44:45;;;;;;;;;;;10.50;76.10;;;;;;5137119;23;19908;-90
2023/10/14 06:46:53;;;;;;;;;;;10.40;75.90;;;;;;5135720;23;19908;-87
2023/10/14 06:49:16;;;;;;;;;;;10.50;75.80;;;;;;5116769;23;19938;-90
2023/10/14 06:51:37;;;;;;;;;;;10.50;75.60;;;;;;5138243;23;19908;-88
2023/10/14 06:53:39;;;;;;;;;;;10.60;75.30;;;;;;5139646;23;19930;-88
2023/10/14 06:55:39;;;;;;;;;;;10.50;75.10;;;;;;5114136;23;19944;-87
2023/10/14 06:57:42;;;;;;;;;;;10.50;75.30;;;;;;5139188;23;19907;-88
2023/10/14 06:59:45;;;;;;;;;;;10.60;75.10;;;;;;5139184;23;19904;-86
2023/10/14 07:01:46;;;;;;;;;;;10.50;74.70;;;;;;5112444;23;19908;-86
2023/10/14 07:04:06;;;;;;;;;;;10.60;74.70;;;;;;5136436;23;19908;-88
2023/10/14 07:06:37;;;;;;;;;;;10.70;75.00;;;;;;5140771;23;19908;-89
2023/10/14 07:08:58;;;;;;;;;;;10.70;75.00;;;;;;5117847;23;19927;-87
2023/10/14 07:11:21;;;;;;;;;;;10.70;75.00;;;;;;5150386;22;19915;-86
2023/10/14 07:13:42;;;;;;;;;;;10.60;74.00;;;;;;5164326;22;19912;-87
2023/10/14 07:16:06;;;;;;;;;;;10.70;74.10;;;;;;5166584;22;19892;-86
2023/10/14 07:18:28;;;;;;;;;;;10.70;73.80;;;;;;5164854;22;19907;-88
2023/10/14 07:20:56;;;;;;;;;;;10.70;74.70;;;;;;5140602;23;19912;-91
2023/10/14 07:23:17;;;;;;;;;;;10.70;73.40;;;;;;5117060;23;19975;-87
2023/10/14 07:25:40;;;;;;;;;;;10.70;73.60;;;;;;5140117;23;19912;-87
2023/10/14 07:28:01;;;;;;;;;;;10.70;73.60;;;;;;5140057;23;19908;-87
2023/10/14 07:30:26;;;;;;;;;;;10.90;73.90;;;;;;5115530;23;19912;-88
2023/10/14 07:32:50;;;;;;;;;;;10.90;73.80;;;;;;5117663;23;19934;-86
2023/10/14 07:35:11;;;;;;;;;;;11.00;73.70;;;;;;5139256;23;19904;-85
2023/10/14 07:37:40;;;;;;;;;;;11.00;73.50;;;;;;5117406;23;20452;-87
2023/10/14 07:40:11;;;;;;;;;;;11.00;73.10;;;;;;5136731;23;19912;-85
2023/10/14 07:42:32;;;;;;;;;;;11.00;73.00;;;;;;5139434;23;19908;-87
2023/10/14 07:44:54;;;;;;;;;;;11.10;71.40;;;;;;5137224;23;19935;-86
2023/10/14 07:47:15;;;;;;;;;;;11.10;71.80;;;;;;5116122;23;20344;-89
2023/10/14 07:49:35;;;;;;;;;;;11.10;71.80;;;;;;5138783;23;19914;-87
2023/10/14 07:52:00;;;;;;;;;;;11.10;71.40;;;;;;5139020;23;19974;-86
2023/10/14 07:54:21;;;;;;;;;;;11.20;71.00;;;;;;5137864;23;19932;-87
2023/10/14 07:56:43;;;;;;;;;;;11.10;70.40;;;;;;5136612;23;19915;-86
2023/10/14 07:59:04;;;;;;;;;;;11.20;71.20;;;;;;5138079;23;19911;-87
2023/10/14 08:01:25;;;;;;;;;;;11.20;70.00;;;;;;5117102;23;19908;-87
2023/10/14 08:03:48;;;;;;;;;;;11.20;69.80;;;;;;5137527;23;19928;-88
2023/10/14 08:06:10;;;;;;;;;;;11.20;70.00;;;;;;5136813;23;19975;-85
2023/10/14 08:08:13;;;;;;;;;;;11.20;70.20;;;;;;5138889;23;19979;-87
2023/10/14 08:10:23;;;;;;;;;;;11.30;69.00;;;;;;5112517;23;20344;-86
2023/10/14 08:12:28;;;;;;;;;;;11.30;69.80;;;;;;5139547;23;19912;-87
2023/10/14 08:14:30;;;;;;;;;;;11.50;69.80;;;;;;5112481;23;20359;-86
2023/10/14 08:16:46;;;;;;;;;;;11.50;70.10;;;;;;5112136;23;20027;-87
2023/10/14 08:18:47;;;;;;;;;;;11.50;70.80;;;;;;5138828;23;20461;-85
2023/10/14 08:21:13;;;;;;;;;;;11.60;70.40;;;;;;5114276;23;20331;-86
2023/10/14 08:23:35;;;;;;;;;;;11.60;70.30;;;;;;5137072;23;19915;-88
2023/10/14 08:25:56;;;;;;;;;;;11.60;70.20;;;;;;5137777;23;19916;-86
2023/10/14 08:28:17;;;;;;;;;;;11.70;70.00;;;;;;5139381;23;19911;-87
2023/10/14 08:30:50;;;;;;;;;;;11.50;70.10;;;;;;5137364;23;19999;-85
2023/10/14 08:33:15;;;;;;;;;;;11.70;69.50;;;;;;5135786;23;19915;-86
2023/10/14 08:35:36;;;;;;;;;;;11.60;69.50;;;;;;5115479;23;19904;-86
2023/10/14 08:37:37;;;;;;;;;;;11.70;69.70;;;;;;5109564;23;19936;-85
2023/10/14 08:39:38;;;;;;;;;;;11.70;69.60;;;;;;5109850;23;19920;-86
2023/10/14 08:41:40;;;;;;;;;;;11.80;69.10;;;;;;5137792;23;19999;-85
2023/10/14 08:44:08;;;;;;;;;;;11.80;69.20;;;;;;5137561;23;19908;-86
2023/10/14 08:46:29;;;;;;;;;;;11.70;69.50;;;;;;5135606;23;19915;-86
2023/10/14 08:48:30;;;;;;;;;;;11.70;69.10;;;;;;5137491;23;19908;-85
2023/10/14 08:50:35;;;;;;;;;;;11.80;69.30;;;;;;5135212;23;19904;-87
2023/10/14 08:52:56;;;;;;;;;;;11.70;69.80;;;;;;5136956;23;19908;-87
2023/10/14 08:55:20;;;;;;;;;;;11.70;68.90;;;;;;5137318;23;19915;-86
2023/10/14 08:57:41;;;;;;;;;;;11.80;69.30;;;;;;5136207;23;20340;-87
2023/10/14 09:00:06;;;;;;;;;;;11.80;69.50;;;;;;5137605;23;19910;-86
2023/10/14 09:02:27;;;;;;;;;;;11.90;69.20;;;;;;5137430;23;19907;-87
2023/10/14 09:04:51;;;;;;;;;;;11.90;68.50;;;;;;5137222;23;19919;-88
2023/10/14 09:07:14;;;;;;;;;;;12.00;69.00;;;;;;5115469;23;19904;-87
2023/10/14 09:09:23;;;;;;;;;;;12.00;68.80;;;;;;5139195;23;19983;-88
2023/10/14 09:11:27;;;;;;;;;;;12.10;68.30;;;;;;5135901;23;19911;-86
2023/10/14 09:13:27;;;;;;;;;;;12.10;67.50;;;;;;5112152;23;19908;-85
2023/10/14 09:15:29;;;;;;;;;;;12.20;66.30;;;;;;5110938;23;19999;-86
2023/10/14 09:17:30;;;;;;;;;;;12.20;66.80;;;;;;5137192;23;19931;-89
2023/10/14 09:19:42;;;;;;;;;;;12.20;65.70;;;;;;5110963;23;19912;-86
2023/10/14 09:21:45;;;;;;;;;;;12.30;65.20;;;;;;5108714;23;19947;-90
2023/10/14 09:24:08;;;;;;;;;;;12.40;63.50;;;;;;5110501;23;20396;-86
2023/10/14 09:26:35;;;;;;;;;;;12.30;63.50;;;;;;5134738;23;19907;-86
2023/10/14 09:28:56;;;;;;;;;;;12.30;61.90;;;;;;5111396;23;20391;-85
2023/10/14 09:31:17;;;;;;;;;;;12.30;61.70;;;;;;5134854;23;19908;-86
2023/10/14 09:33:42;;;;;;;;;;;12.20;61.60;;;;;;5132987;23;19989;-86
2023/10/14 09:36:11;;;;;;;;;;;12.20;62.70;;;;;;5134382;23;19907;-89
2023/10/14 09:38:32;;;;;;;;;;;12.20;63.30;;;;;;5134456;23;19912;-88
2023/10/14 09:40:53;;;;;;;;;;;12.20;63.90;;;;;;5134946;23;19908;-86
2023/10/14 09:43:14;;;;;;;;;;;12.20;64.10;;;;;;5113950;23;19904;-85
2023/10/14 09:45:35;;;;;;;;;;;12.30;63.80;;;;;;5134439;23;19908;-87
2023/10/14 09:47:37;;;;;;;;;;;12.20;64.20;;;;;;5135904;23;19987;-86
2023/10/14 09:49:38;;;;;;;;;;;12.30;64.40;;;;;;5109953;23;19924;-85
2023/10/14 09:51:42;;;;;;;;;;;12.20;64.40;;;;;;5090676;23;19912;-87
2023/10/14 09:53:51;;;;;;;;;;;12.30;64.70;;;;;;5160464;22;19927;-87
2023/10/14 09:56:12;;;;;;;;;;;12.40;65.00;;;;;;5131126;23;19919;-88
2023/10/14 09:58:43;;;;;;;;;;;12.40;65.30;;;;;;5133854;23;19990;-85
2023/10/14 10:01:17;;;;;;;;;;;12.40;65.20;;;;;;5136148;23;19936;-87
2023/10/14 10:03:45;;;;;;;;;;;12.50;65.50;;;;;;5133707;23;20427;-87
2023/10/14 10:06:13;;;;;;;;;;;12.50;65.50;;;;;;5135478;23;19915;-87
2023/10/14 10:08:48;;;;;;;;;;;12.70;64.10;;;;;;5136291;23;19905;-88
2023/10/14 10:11:21;;;;;;;;;;;12.60;64.50;;;;;;5136734;23;19976;-87
2023/10/14 10:13:44;;;;;;;;;;;12.70;63.40;;;;;;5134316;23;19904;-84
2023/10/14 10:16:05;;;;;;;;;;;12.70;61.40;;;;;;5114797;23;19904;-86
2023/10/14 10:18:46;;;;;;;;;;;12.80;59.80;;;;;;5113088;23;19909;-88
2023/10/14 10:21:06;;;;;;;;;;;12.90;60.50;;;;;;5133392;23;19912;-86
2023/10/14 10:23:10;;;;;;;;;;;12.90;58.40;;;;;;5110299;23;19987;-87
2023/10/14 10:25:15;;;;;;;;;;;12.90;58.60;;;;;;5083393;23;19912;-88
2023/10/14 10:27:18;;;;;;;;;;;12.90;58.40;;;;;;5109371;23;20349;-87
2023/10/14 10:29:33;;;;;;;;;;;12.90;58.70;;;;;;5112879;23;19908;-89
2023/10/14 10:31:33;;;;;;;;;;;13.00;57.80;;;;;;5136340;23;19923;-88
2023/10/14 10:34:08;;;;;;;;;;;13.10;58.20;;;;;;5135042;23;19982;-86
2023/10/14 10:36:52;;;;;;;;;;;13.00;58.40;;;;;;5044967;23;19916;-89
2023/10/14 10:39:16;;;;;;;;;;;13.10;59.40;;;;;;5041025;23;19912;-89
2023/10/14 10:41:37;;;;;;;;;;;13.00;57.60;;;;;;5129833;23;19904;-88
2023/10/14 10:44:13;;;;;;;;;;;12.90;57.30;;;;;;5116629;23;20272;-88
2023/10/14 10:46:41;;;;;;;;;;;13.00;57.20;;;;;;5136524;23;20268;-89
2023/10/14 10:49:06;;;;;;;;;;;12.90;57.00;;;;;;5117339;23;19904;-86
2023/10/14 10:51:31;;;;;;;;;;;12.90;57.90;;;;;;5115792;23;20424;-87
2023/10/14 10:54:03;;;;;;;;;;;12.90;58.30;;;;;;5135580;23;19939;-86
2023/10/14 10:56:07;;;;;;;;;;;12.90;58.30;;;;;;5108338;23;19943;-88
2023/10/14 10:58:14;;;;;;;;;;;12.90;58.20;;;;;;5106261;23;19908;-85
2023/10/14 11:00:17;;;;;;;;;;;13.00;58.60;;;;;;5132005;23;20213;-84
2023/10/14 11:02:19;;;;;;;;;;;13.10;59.10;;;;;;5135635;23;19908;-87
2023/10/14 11:04:22;;;;;;;;;;;13.10;58.40;;;;;;5109016;23;19962;-87
2023/10/14 11:06:29;;;;;;;;;;;13.20;58.00;;;;;;5109664;23;20350;-86
2023/10/14 11:08:50;;;;;;;;;;;13.20;57.60;;;;;;5133645;23;20654;-85
2023/10/14 11:11:12;;;;;;;;;;;13.20;56.80;;;;;;5133598;23;19904;-85
2023/10/14 11:13:36;;;;;;;;;;;13.20;56.60;;;;;;5112124;23;19935;-84
2023/10/14 11:15:57;;;;;;;;;;;13.20;56.80;;;;;;5133287;23;19998;-83
2023/10/14 11:18:18;;;;;;;;;;;13.20;56.90;;;;;;5113171;23;19940;-85
2023/10/14 11:20:43;;;;;;;;;;;13.20;56.50;;;;;;5135797;23;19904;-84
2023/10/14 11:23:11;;;;;;;;;;;13.10;57.20;;;;;;5133815;23;19912;-87
2023/10/14 11:25:43;;;;;;;;;;;13.10;57.70;;;;;;5133971;23;19920;-88
2023/10/14 11:28:05;;;;;;;;;;;13.00;57.60;;;;;;5133959;23;19919;-88
2023/10/14 11:30:28;;;;;;;;;;;12.80;57.50;;;;;;5112629;23;20423;-87
2023/10/14 11:32:50;;;;;;;;;;;12.80;57.90;;;;;;5132970;23;19919;-86
2023/10/14 11:34:52;;;;;;;;;;;12.70;58.30;;;;;;5130479;23;19915;-85
2023/10/14 11:36:54;;;;;;;;;;;12.50;58.70;;;;;;5111504;23;19935;-86
2023/10/14 11:38:58;;;;;;;;;;;12.50;59.20;;;;;;5135799;23;19990;-85
2023/10/14 11:41:20;;;;;;;;;;;12.50;59.70;;;;;;5133059;23;20336;-86
2023/10/14 11:43:42;;;;;;;;;;;12.50;60.20;;;;;;5133295;23;19930;-86
2023/10/14 11:46:03;;;;;;;;;;;12.30;60.80;;;;;;5129522;23;19908;-88
2023/10/14 11:48:27;;;;;;;;;;;12.30;60.90;;;;;;5137922;23;19959;-85
2023/10/14 11:50:51;;;;;;;;;;;12.20;61.30;;;;;;5156063;23;19907;-87
2023/10/14 11:53:13;;;;;;;;;;;12.10;61.50;;;;;;5157786;22;20130;-86
2023/10/14 11:55:33;;;;;;;;;;;12.10;61.20;;;;;;5131734;22;20652;-85
2023/10/14 11:57:54;;;;;;;;;;;12.00;61.30;;;;;;5133378;23;19915;-85
2023/10/14 12:00:20;;;;;;;;;;;11.90;61.20;;;;;;5151513;23;19907;-84
2023/10/14 12:02:40;;;;;;;;;;;11.80;61.20;;;;;;5133394;23;19983;-86
2023/10/14 12:04:50;;;;;;;;;;;11.80;61.20;;;;;;5133193;23;19938;-85
2023/10/14 12:06:50;;;;;;;;;;;11.70;61.30;;;;;;5133632;23;20352;-86
2023/10/14 12:08:53;;;;;;;;;;;11.70;61.70;;;;;;5107967;23;19916;-86
2023/10/14 12:10:54;;;;;;;;;;;11.70;62.20;;;;;;5158817;23;20012;-86
2023/10/14 12:12:55;;;;;;;;;;;11.70;62.30;;;;;;5131083;23;19912;-88
2023/10/14 12:14:55;;;;;;;;;;;11.60;62.80;;;;;;5106931;23;19954;-84
2023/10/14 12:16:56;;;;;;;;;;;11.70;63.00;;;;;;5107639;23;19992;-85
2023/10/14 12:19:11;;;;;;;;;;;11.70;63.10;;;;;;5135022;23;19998;-87
2023/10/14 12:21:32;;;;;;;;;;;11.70;62.10;;;;;;5155511;23;19912;-88
2023/10/14 12:23:54;;;;;;;;;;;11.70;60.80;;;;;;5155433;23;20357;-87
2023/10/14 12:25:55;;;;;;;;;;;11.70;60.10;;;;;;5156166;23;19986;-88
2023/10/14 12:28:24;;;;;;;;;;;11.70;60.60;;;;;;5115283;23;19931;-87
2023/10/14 12:30:46;;;;;;;;;;;11.70;60.90;;;;;;5138011;23;19900;-87
2023/10/14 12:33:07;;;;;;;;;;;11.70;61.20;;;;;;5146055;22;19957;-85
2023/10/14 12:35:29;;;;;;;;;;;11.70;60.90;;;;;;5159069;22;19903;-85
2023/10/14 12:37:49;;;;;;;;;;;11.80;61.40;;;;;;5154724;22;19908;-86
2023/10/14 12:40:13;;;;;;;;;;;11.70;61.00;;;;;;5113980;23;20430;-84
2023/10/14 12:42:18;;;;;;;;;;;11.80;60.70;;;;;;5135199;23;19911;-85
2023/10/14 12:44:19;;;;;;;;;;;11.80;60.70;;;;;;5153161;22;19892;-87
2023/10/14 12:46:20;;;;;;;;;;;11.80;60.80;;;;;;5133779;23;19896;-86
2023/10/14 12:48:30;;;;;;;;;;;11.80;60.90;;;;;;5110096;23;20080;-86
2023/10/14 12:50:33;;;;;;;;;;;11.90;60.80;;;;;;5133889;23;19981;-85
2023/10/14 12:53:02;;;;;;;;;;;11.80;60.90;;;;;;5110929;23;19908;-85
2023/10/14 12:55:30;;;;;;;;;;;11.70;60.90;;;;;;5114317;23;20003;-84
2023/10/14 12:57:52;;;;;;;;;;;11.60;61.20;;;;;;5134482;23;20344;-85
2023/10/14 13:00:18;;;;;;;;;;;11.70;61.80;;;;;;5135575;23;19908;-84
2023/10/14 13:02:39;;;;;;;;;;;11.50;62.20;;;;;;5132993;23;20176;-86
2023/10/14 13:05:02;;;;;;;;;;;11.50;63.00;;;;;;5134172;23;19947;-86
2023/10/14 13:07:23;;;;;;;;;;;11.50;63.30;;;;;;5138230;23;19911;-84
2023/10/14 13:09:41;;;;;;;;;;;11.50;63.80;;;;;;5138267;23;19914;-84
2023/10/14 13:11:44;;;;;;;;;;;11.50;64.20;;;;;;5137249;23;19912;-85
2023/10/14 13:13:50;;;;;;;;;;;11.50;64.20;;;;;;5084660;23;19913;-86
2023/10/14 13:15:54;;;;;;;;;;;11.50;64.10;;;;;;5114013;23;19924;-86
2023/10/14 13:17:58;;;;;;;;;;;11.50;63.80;;;;;;5109168;23;19912;-84
2023/10/14 13:19:59;;;;;;;;;;;11.50;63.70;;;;;;5137991;23;20342;-87
2023/10/14 13:22:00;;;;;;;;;;;11.30;63.60;;;;;;5112576;23;20019;-84
2023/10/14 13:24:06;;;;;;;;;;;11.30;63.70;;;;;;5109407;23;19916;-85
2023/10/14 13:26:09;;;;;;;;;;;11.30;63.80;;;;;;5137897;23;20426;-86
2023/10/14 13:28:11;;;;;;;;;;;11.30;63.90;;;;;;5138818;23;19908;-85
2023/10/14 13:30:16;;;;;;;;;;;11.20;63.70;;;;;;5114054;23;19916;-84
2023/10/14 13:32:16;;;;;;;;;;;11.20;63.50;;;;;;5138840;23;19988;-85
2023/10/14 13:34:18;;;;;;;;;;;11.30;63.60;;;;;;5137526;23;19939;-84
2023/10/14 13:36:20;;;;;;;;;;;11.20;63.40;;;;;;5140125;23;19908;-85
2023/10/14 13:38:23;;;;;;;;;;;11.10;63.20;;;;;;5140066;23;19908;-85